Time;durP1;ratioP1;P1;durP2;ratioP2;P2;SDS_P1;SDS_P2;PMS_P1;PMS_P2;Temp;Humidity;BMP_temperature;BMP_pressure;BME280_temperature;BME280_humidity;BME280_pressure;Samples;Min_cycle;Max_cycle;Signal;HPM_P1;HPM_P2
2023/10/21 00:01:27;;;;;;;23.63;6.50;;;19.00;60.90;;;19.42;44.73;94534.41;5080671;28;20970;-60
2023/10/21 00:03:55;;;;;;;16.17;5.87;;;19.00;61.70;;;19.39;43.96;94530.28;5077273;28;20497;-60
2023/10/21 00:06:23;;;;;;;13.63;6.87;;;19.00;60.80;;;19.40;44.33;94520.47;5081280;28;20466;-60
2023/10/21 00:08:51;;;;;;;17.63;5.60;;;19.00;60.90;;;19.41;44.17;94538.94;5080949;28;20516;-56
2023/10/21 00:11:19;;;;;;;13.77;5.40;;;19.00;61.00;;;19.44;44.14;94535.00;5077049;28;20478;-60
2023/10/21 00:13:46;;;;;;;15.63;5.17;;;19.00;61.20;;;19.45;44.42;94542.00;5080532;28;20454;-61
2023/10/21 00:16:13;;;;;;;18.77;3.70;;;19.10;61.30;;;19.46;43.99;94535.66;5077135;28;20475;-61
2023/10/21 00:18:40;;;;;;;13.43;4.20;;;19.10;61.30;;;19.46;44.24;94525.78;5080195;28;21028;-61
2023/10/21 00:21:07;;;;;;;15.57;4.17;;;19.10;61.30;;;19.44;44.46;94522.53;5077663;28;20517;-59
2023/10/21 00:23:36;;;;;;;17.50;4.63;;;19.00;61.60;;;19.41;44.69;94560.25;5079457;28;20482;-60
2023/10/21 00:26:03;;;;;;;10.10;4.10;;;19.00;61.40;;;19.34;44.13;94552.22;5077326;28;20543;-56
2023/10/21 00:28:31;;;;;;;11.97;4.20;;;19.00;61.50;;;19.32;44.37;94548.94;5080368;28;20827;-60
2023/10/21 00:31:01;;;;;;;14.83;4.07;;;19.00;62.00;;;19.29;44.57;94533.34;5078113;28;20471;-60
2023/10/21 00:33:28;;;;;;;13.80;3.70;;;18.90;62.20;;;19.27;45.18;94555.91;5080178;28;20446;-55
2023/10/21 00:35:55;;;;;;;7.27;3.27;;;18.90;62.40;;;19.25;45.31;94556.09;5077669;28;20478;-57
2023/10/21 00:38:23;;;;;;;8.27;4.40;;;18.90;62.40;;;19.24;45.44;94557.16;5079240;28;20451;-56
2023/10/21 00:40:52;;;;;;;8.93;3.97;;;18.90;62.70;;;19.23;45.61;94554.69;5077689;28;20532;-59
2023/10/21 00:43:35;;;;;;;7.00;3.87;;;18.90;62.80;;;19.21;45.73;94570.88;5082352;28;21031;-61
2023/10/21 00:46:10;;;;;;;18.17;4.20;;;18.80;62.70;;;19.19;45.22;94558.75;5081429;28;20560;-57
2023/10/21 00:48:38;;;;;;;11.13;3.40;;;18.80;62.90;;;19.16;45.78;94551.97;5082776;28;20979;-56
2023/10/21 00:51:05;;;;;;;10.37;3.80;;;18.80;63.20;;;19.15;45.20;94566.34;5082200;28;20470;-61
2023/10/21 00:53:32;;;;;;;11.50;4.63;;;18.80;63.10;;;19.12;45.83;94564.09;5082751;28;20457;-56
2023/10/21 00:56:01;;;;;;;8.00;3.37;;;18.80;63.40;;;19.07;46.05;94571.84;5081453;28;20463;-60
2023/10/21 00:58:30;;;;;;;10.63;3.80;;;18.70;63.60;;;19.04;46.12;94558.91;5082976;28;20461;-60
2023/10/21 01:00:58;;;;;;;12.80;4.30;;;18.70;63.80;;;18.99;46.23;94563.00;5081986;28;20482;-59
2023/10/21 01:03:26;;;;;;;8.70;3.53;;;18.60;63.70;;;18.98;46.03;94568.53;5082374;28;20532;-57
2023/10/21 01:05:53;;;;;;;9.43;4.53;;;18.60;64.00;;;18.97;46.27;94565.03;5081737;28;20470;-55
2023/10/21 01:08:20;;;;;;;11.17;3.87;;;18.60;63.80;;;18.97;46.19;94570.38;5082682;28;20541;-59
2023/10/21 01:10:48;;;;;;;17.80;3.90;;;18.60;64.00;;;18.95;46.35;94587.59;5083817;28;20451;-60
2023/10/21 01:13:16;;;;;;;17.53;3.37;;;18.60;64.00;;;18.92;46.69;94578.16;5082605;28;20453;-60
2023/10/21 01:15:43;;;;;;;11.50;4.50;;;18.60;64.70;;;18.88;46.42;94603.53;5080984;28;20803;-61
2023/10/21 01:18:11;;;;;;;18.10;4.40;;;18.50;64.10;;;18.84;46.31;94554.31;5082640;28;20450;-60
2023/10/21 01:20:39;;;;;;;18.53;3.80;;;18.50;64.50;;;18.78;47.02;94574.56;5080894;28;21026;-55
2023/10/21 01:23:07;;;;;;;13.43;4.30;;;18.40;65.00;;;18.76;46.55;94576.63;5083094;28;20488;-61
2023/10/21 01:25:36;;;;;;;16.63;4.23;;;18.40;64.70;;;18.73;46.98;94579.69;5080794;28;20474;-57
2023/10/21 01:28:03;;;;;;;18.07;4.87;;;18.40;65.00;;;18.71;46.57;94564.91;5082695;28;20526;-56
2023/10/21 01:30:31;;;;;;;13.13;7.40;;;18.40;65.00;;;18.68;47.26;94598.06;5080713;28;20443;-55
2023/10/21 01:32:58;;;;;;;14.17;3.90;;;18.30;64.90;;;18.67;47.31;94576.97;5083219;28;20467;-56
2023/10/21 01:35:25;;;;;;;8.70;4.07;;;18.30;65.40;;;18.62;47.10;94581.06;5083196;28;20738;-56
2023/10/21 01:37:52;;;;;;;6.30;3.27;;;18.30;64.90;;;18.57;47.89;94575.47;5080466;28;20471;-57
2023/10/21 01:40:20;;;;;;;12.70;3.57;;;18.20;66.30;;;18.55;46.93;94564.22;5083194;28;20535;-60
2023/10/21 01:42:48;;;;;;;17.20;4.00;;;18.20;65.90;;;18.54;47.00;94583.03;5079320;28;21072;-61
2023/10/21 01:45:16;;;;;;;8.40;3.60;;;18.20;66.00;;;18.51;47.66;94580.78;5079673;28;20903;-61
2023/10/21 01:47:43;;;;;;;15.17;3.77;;;18.20;66.30;;;18.48;47.43;94568.66;5083059;28;20564;-57
2023/10/21 01:50:11;;;;;;;9.50;3.23;;;18.10;66.20;;;18.45;47.65;94577.88;5079937;28;20458;-60
2023/10/21 01:52:39;;;;;;;9.87;4.33;;;18.10;66.30;;;18.44;47.52;94565.56;5083374;28;20668;-56
2023/10/21 01:55:08;;;;;;;15.73;4.17;;;18.10;66.40;;;18.45;47.62;94587.69;5078764;28;20447;-59
2023/10/21 01:57:36;;;;;;;11.33;4.30;;;18.10;66.50;;;18.44;47.72;94570.09;5079645;28;20931;-55
2023/10/21 02:00:08;;;;;;;10.90;4.00;;;18.10;66.40;;;18.45;47.54;94563.72;5078928;28;20537;-60
2023/10/21 02:02:36;;;;;;;9.33;4.37;;;18.10;66.90;;;18.41;47.75;94573.97;5079404;28;20471;-56
2023/10/21 02:05:04;;;;;;;18.97;4.03;;;18.10;66.70;;;18.39;47.88;94572.53;5082767;28;20523;-57
2023/10/21 02:07:32;;;;;;;9.73;4.00;;;18.00;66.80;;;18.36;48.05;94562.28;5079308;28;20470;-57
2023/10/21 02:09:59;;;;;;;13.50;4.00;;;18.00;67.00;;;18.34;48.00;94569.59;5082941;28;20462;-60
2023/10/21 02:12:27;;;;;;;16.13;4.90;;;18.00;67.00;;;18.31;47.86;94586.81;5078622;28;20921;-57
2023/10/21 02:14:54;;;;;;;18.53;3.77;;;18.00;67.10;;;18.28;47.78;94577.38;5082734;28;20511;-60
2023/10/21 02:17:23;;;;;;;7.37;4.07;;;17.90;67.40;;;18.28;47.83;94593.34;5082679;28;20473;-61
2023/10/21 02:19:56;;;;;;;17.40;3.60;;;17.90;67.40;;;18.26;48.50;94590.06;5078941;28;20478;-56
2023/10/21 02:22:23;;;;;;;9.87;4.67;;;17.90;67.40;;;18.24;48.37;94589.41;5079172;28;20585;-60
2023/10/21 02:24:51;;;;;;;14.33;4.17;;;17.90;67.70;;;18.22;48.34;94606.63;5081823;28;20521;-57
2023/10/21 02:27:18;;;;;;;6.10;3.90;;;17.90;67.80;;;18.18;48.67;94600.84;5078855;28;20471;-57
2023/10/21 02:29:45;;;;;;;21.23;4.67;;;17.90;68.10;;;18.16;48.75;94621.50;5082196;28;20446;-56
2023/10/21 02:32:13;;;;;;;11.10;3.87;;;17.80;68.30;;;18.13;48.98;94595.28;5078832;28;20475;-60
2023/10/21 02:34:42;;;;;;;5.70;3.70;;;17.80;68.60;;;18.10;48.99;94606.31;5078709;28;20450;-56
2023/10/21 02:37:09;;;;;;;8.77;3.50;;;17.70;68.60;;;18.06;48.82;94610.38;5078420;28;20481;-56
2023/10/21 02:39:37;;;;;;;16.40;5.40;;;17.70;68.60;;;18.02;48.96;94590.50;5078804;28;20487;-56
2023/10/21 02:42:05;;;;;;;18.57;5.13;;;17.70;68.90;;;17.99;48.65;94602.34;5078554;28;20477;-56
2023/10/21 02:44:32;;;;;;;9.17;4.03;;;17.70;69.20;;;17.95;49.25;94609.03;5082592;28;20486;-57
2023/10/21 02:46:59;;;;;;;15.33;4.00;;;17.60;69.20;;;17.91;49.03;94603.28;5078432;28;20524;-55
2023/10/21 02:49:27;;;;;;;18.03;4.70;;;17.60;69.50;;;17.87;49.57;94606.50;5082214;28;20438;-56
2023/10/21 02:51:56;;;;;;;9.83;4.70;;;17.50;69.60;;;17.85;49.23;94592.56;5078665;28;20471;-61
2023/10/21 02:54:23;;;;;;;9.70;3.80;;;17.50;69.70;;;17.82;48.99;94619.56;5081714;28;21051;-60
2023/10/21 02:56:50;;;;;;;8.77;4.77;;;17.50;70.00;;;17.77;50.23;94609.50;5078403;28;20470;-56
2023/10/21 02:59:18;;;;;;;8.80;3.63;;;17.40;70.50;;;17.72;49.81;94626.03;5081206;28;20450;-54
2023/10/21 03:01:45;;;;;;;16.10;4.80;;;17.40;70.30;;;17.67;49.91;94603.66;5078133;28;20478;-60
2023/10/21 03:04:12;;;;;;;11.93;3.97;;;17.40;70.60;;;17.66;50.05;94612.63;5081178;28;20857;-55
2023/10/21 03:06:40;;;;;;;17.93;6.00;;;17.30;70.40;;;17.66;49.93;94613.47;5077825;28;20475;-57
2023/10/21 03:09:09;;;;;;;11.43;3.93;;;17.30;70.50;;;17.63;49.90;94626.31;5080943;28;20450;-57
2023/10/21 03:11:36;;;;;;;8.50;3.93;;;17.30;70.40;;;17.60;49.61;94608.91;5078554;28;20467;-55
2023/10/21 03:14:04;;;;;;;12.60;4.50;;;17.30;70.50;;;17.60;50.12;94616.91;5080876;28;21416;-60
2023/10/21 03:16:31;;;;;;;23.40;4.20;;;17.20;70.80;;;17.53;50.39;94624.78;5078690;28;20467;-55
2023/10/21 03:18:59;;;;;;;15.50;5.40;;;17.20;71.10;;;17.50;49.90;94606.56;5080637;28;20466;-55
2023/10/21 03:21:26;;;;;;;18.93;4.40;;;17.20;71.50;;;17.46;50.48;94620.41;5078672;28;20466;-61
2023/10/21 03:23:53;;;;;;;17.53;4.00;;;17.10;71.50;;;17.40;50.11;94619.34;5080224;28;20533;-60
2023/10/21 03:26:22;;;;;;;8.50;5.00;;;17.10;71.60;;;17.36;50.78;94613.56;5079322;28;20497;-56
2023/10/21 03:28:50;;;;;;;15.73;4.77;;;17.00;71.90;;;17.33;50.36;94603.31;5079721;28;20543;-57
2023/10/21 03:31:17;;;;;;;16.43;5.77;;;17.00;72.20;;;17.30;50.50;94621.47;5078831;28;20498;-56
2023/10/21 03:33:45;;;;;;;9.67;4.50;;;17.00;72.20;;;17.26;50.79;94621.03;5079775;28;20528;-54
2023/10/21 03:36:12;;;;;;;23.40;5.30;;;16.90;72.20;;;17.22;50.49;94609.13;5078948;28;20549;-60
2023/10/21 03:38:40;;;;;;;16.57;4.03;;;16.90;72.80;;;17.22;50.59;94626.91;5079063;28;20541;-60
2023/10/21 03:41:08;;;;;;;14.13;4.70;;;16.90;72.70;;;17.18;50.96;94618.47;5078889;28;20531;-58
2023/10/21 03:43:37;;;;;;;10.27;3.70;;;16.80;72.90;;;17.13;51.16;94632.31;5078850;28;21076;-60
2023/10/21 03:46:05;;;;;;;10.63;5.87;;;16.80;73.50;;;17.08;51.35;94616.13;5078915;28;21049;-60
2023/10/21 03:48:32;;;;;;;12.50;4.20;;;16.80;73.80;;;17.05;51.20;94618.34;5079077;28;20458;-56
2023/10/21 03:51:04;;;;;;;13.20;4.07;;;16.70;74.10;;;17.01;51.46;94617.88;5079252;28;21005;-57
2023/10/21 03:53:32;;;;;;;16.40;4.63;;;16.70;74.20;;;16.97;51.37;94627.22;5079416;28;20439;-59
2023/10/21 03:56:00;;;;;;;15.43;4.40;;;16.60;74.60;;;16.92;51.89;94630.44;5078635;28;20560;-54
2023/10/21 03:58:27;;;;;;;23.40;4.63;;;16.60;75.00;;;16.88;51.54;94621.19;5079389;28;20600;-62
2023/10/21 04:00:57;;;;;;;14.73;4.50;;;16.60;75.10;;;16.85;52.01;94632.16;5079021;28;20457;-61
2023/10/21 04:03:25;;;;;;;13.37;4.40;;;16.50;75.30;;;16.82;51.96;94609.47;5078999;28;20524;-56
2023/10/21 04:05:53;;;;;;;17.20;7.40;;;16.50;76.10;;;16.80;52.27;94622.06;5079037;28;20534;-57
2023/10/21 04:08:20;;;;;;;20.60;5.23;;;16.50;76.10;;;16.78;52.34;94626.75;5079116;28;20488;-57
2023/10/21 04:10:47;;;;;;;5.70;4.13;;;16.50;76.90;;;16.80;53.17;94616.75;5078834;28;20511;-60
2023/10/21 04:13:14;;;;;;;16.10;5.70;;;16.50;77.70;;;16.80;52.54;94626.56;5078541;28;20928;-60
2023/10/21 04:15:42;;;;;;;11.93;4.40;;;16.50;76.90;;;16.77;52.64;94613.66;5080839;28;20451;-55
2023/10/21 04:18:11;;;;;;;9.00;5.00;;;16.40;78.10;;;16.73;52.58;94615.03;5081800;28;20784;-61
2023/10/21 04:20:38;;;;;;;7.83;4.20;;;16.40;77.50;;;16.69;52.78;94627.84;5082650;28;20446;-59
2023/10/21 04:23:05;;;;;;;25.27;5.77;;;16.40;77.90;;;16.63;53.59;94613.47;5083126;28;20473;-57
2023/10/21 04:25:33;;;;;;;9.33;4.80;;;16.30;79.10;;;16.61;53.58;94610.19;5082231;28;20490;-56
2023/10/21 04:28:00;;;;;;;13.03;5.20;;;16.30;80.10;;;16.58;53.31;94629.13;5083501;28;20477;-56
2023/10/21 04:30:28;;;;;;;9.07;4.80;;;16.30;79.70;;;16.56;53.47;94619.69;5082102;28;20919;-56
2023/10/21 04:32:55;;;;;;;19.07;5.77;;;16.20;80.10;;;16.53;53.05;94620.06;5084067;28;20478;-55
2023/10/21 04:35:24;;;;;;;11.07;5.37;;;16.20;79.90;;;16.52;53.45;94629.88;5081732;28;20603;-56
2023/10/21 04:37:51;;;;;;;21.33;5.23;;;16.20;80.40;;;16.49;53.79;94617.78;5083478;28;20511;-59
2023/10/21 04:40:18;;;;;;;15.73;5.20;;;16.20;81.40;;;16.46;53.68;94631.41;5081300;28;20455;-59
2023/10/21 04:42:46;;;;;;;16.30;4.60;;;16.20;81.00;;;16.45;53.84;94639.56;5083294;28;20882;-56
2023/10/21 04:45:13;;;;;;;19.90;6.97;;;16.10;81.90;;;16.44;53.73;94649.38;5081052;28;20483;-60
2023/10/21 04:47:40;;;;;;;13.83;5.97;;;16.10;81.70;;;16.42;54.02;94651.38;5083729;28;20508;-61
2023/10/21 04:50:08;;;;;;;13.60;5.17;;;16.10;82.00;;;16.41;53.96;94639.09;5080735;28;20516;-59
2023/10/21 04:52:37;;;;;;;23.20;4.90;;;16.10;82.00;;;16.42;53.78;94659.34;5083862;28;20473;-60
2023/10/21 04:55:05;;;;;;;19.00;6.30;;;16.10;82.10;;;16.42;54.09;94656.69;5080982;28;20540;-60
2023/10/21 04:57:32;;;;;;;22.13;5.33;;;16.10;82.90;;;16.43;53.95;94660.97;5083911;28;20534;-56
2023/10/21 05:00:00;;;;;;;14.80;4.90;;;16.10;82.40;;;16.43;53.98;94666.28;5080585;28;20450;-60
2023/10/21 05:02:28;;;;;;;20.07;4.83;;;16.10;82.90;;;16.46;53.71;94670.41;5083521;28;20509;-61
2023/10/21 05:04:55;;;;;;;12.57;4.60;;;16.10;82.90;;;16.48;53.45;94663.94;5079906;28;21029;-60
2023/10/21 05:07:22;;;;;;;14.43;4.30;;;16.10;82.50;;;16.53;53.98;94678.47;5083645;28;20547;-61
2023/10/21 05:09:52;;;;;;;12.27;5.03;;;16.20;83.10;;;16.57;53.78;94674.47;5080485;28;20505;-60
2023/10/21 05:12:20;;;;;;;14.17;6.67;;;16.20;82.70;;;16.63;53.49;94692.31;5084580;28;20911;-61
2023/10/21 05:14:47;;;;;;;16.27;4.73;;;16.30;82.90;;;16.67;53.46;94685.66;5080141;28;20451;-56
2023/10/21 05:17:15;;;;;;;11.20;5.03;;;16.30;83.10;;;16.71;53.27;94694.88;5079672;28;20487;-56
2023/10/21 05:19:42;;;;;;;23.40;10.83;;;16.40;82.40;;;16.74;53.17;94683.91;5079850;28;20454;-55
2023/10/21 05:22:09;;;;;;;26.60;7.80;;;16.40;82.40;;;16.75;53.13;94696.19;5082180;28;20566;-57
2023/10/21 05:24:36;;;;;;;13.37;6.13;;;16.40;82.40;;;16.77;53.63;94680.06;5083127;28;21014;-58
2023/10/21 05:27:05;;;;;;;19.57;6.03;;;16.40;83.20;;;16.78;53.38;94703.78;5078338;28;20840;-57
2023/10/21 05:29:32;;;;;;;13.43;5.27;;;16.50;82.50;;;16.81;53.36;94684.81;5080648;28;20997;-57
2023/10/21 05:32:01;;;;;;;13.43;8.47;;;16.50;82.70;;;16.85;53.45;94710.03;5083207;28;20469;-55
2023/10/21 05:34:28;;;;;;;38.90;15.27;;;16.60;82.60;;;16.90;53.17;94701.53;5082783;28;20960;-57
2023/10/21 05:36:56;;;;;;;17.07;6.20;;;16.60;82.60;;;16.96;53.05;94711.44;5079438;28;20536;-55
2023/10/21 05:39:23;;;;;;;11.73;5.90;;;16.60;82.60;;;17.02;53.23;94705.38;5082656;28;21024;-59
2023/10/21 05:41:51;;;;;;;14.20;6.40;;;16.70;82.70;;;17.14;52.80;94710.22;5081316;28;20520;-56
2023/10/21 05:44:20;;;;;;;22.97;6.37;;;16.80;82.80;;;17.22;53.13;94717.28;5084028;28;20510;-56
2023/10/21 05:46:47;;;;;;;27.87;5.70;;;16.90;82.90;;;17.32;52.79;94725.78;5081070;28;20470;-56
2023/10/21 05:49:14;;;;;;;15.97;6.03;;;17.00;82.60;;;17.44;52.28;94734.94;5080848;28;20443;-57
2023/10/21 05:51:42;;;;;;;11.30;5.63;;;17.00;81.80;;;17.55;52.76;94715.88;5078595;28;20470;-58
2023/10/21 05:54:09;;;;;;;14.93;5.60;;;17.20;82.70;;;17.80;52.31;94720.00;5082490;28;20574;-59
2023/10/21 05:56:36;;;;;;;23.13;6.70;;;17.40;82.70;;;18.14;52.09;94729.19;5084702;28;20470;-63
2023/10/21 05:59:04;;;;;;;34.00;6.27;;;17.60;81.80;;;18.52;51.62;94716.41;5080862;28;20462;-59
2023/10/21 06:01:33;;;;;;;15.13;7.10;;;17.90;80.80;;;18.91;50.49;94728.41;5082651;28;20539;-63
2023/10/21 06:04:00;;;;;;;11.70;5.17;;;18.40;80.30;;;19.27;49.84;94724.75;5082624;28;20450;-61
2023/10/21 06:06:28;;;;;;;17.40;5.93;;;18.70;79.30;;;19.67;49.69;94746.28;5077714;28;20459;-60
2023/10/21 06:08:55;;;;;;;13.70;7.20;;;19.10;78.10;;;20.07;49.09;94734.91;5081667;28;20543;-59
2023/10/21 06:11:22;;;;;;;19.33;6.20;;;19.40;77.10;;;20.46;48.27;94737.84;5079590;28;20470;-55
2023/10/21 06:13:50;;;;;;;12.90;5.17;;;19.80;75.80;;;20.89;47.29;94716.06;5081200;28;21119;-59
2023/10/21 06:16:17;;;;;;;13.93;5.17;;;20.30;74.40;;;21.31;46.93;94735.31;5081004;28;20489;-56
2023/10/21 06:18:46;;;;;;;10.80;5.30;;;20.60;73.40;;;21.74;46.43;94734.00;5078235;28;20473;-56
2023/10/21 06:21:13;;;;;;;13.63;5.17;;;21.10;72.40;;;22.18;45.92;94737.66;5079287;28;20884;-56
2023/10/21 06:23:41;;;;;;;14.40;4.73;;;21.50;71.60;;;22.61;45.50;94739.66;5080482;28;20959;-58
2023/10/21 06:26:11;;;;;;;17.70;5.63;;;21.90;70.30;;;23.07;43.96;94757.22;5080863;28;20497;-57
2023/10/21 06:28:38;;;;;;;19.10;4.93;;;22.40;69.00;;;23.51;43.73;94748.38;5081309;28;20865;-57
2023/10/21 06:31:06;;;;;;;17.87;5.43;;;22.80;68.00;;;23.97;43.11;94760.47;5081677;28;20462;-57
2023/10/21 06:33:35;;;;;;;15.70;5.40;;;23.20;66.50;;;24.39;42.68;94749.75;5080672;28;20459;-57
2023/10/21 06:36:04;;;;;;;8.57;4.60;;;23.60;65.40;;;24.80;41.16;94750.84;5080891;28;20875;-56
2023/10/21 06:38:32;;;;;;;16.07;5.23;;;24.00;64.20;;;25.22;41.24;94750.75;5080663;28;20966;-57
2023/10/21 06:40:59;;;;;;;16.33;5.87;;;24.40;63.40;;;25.65;40.83;94761.38;5080556;28;20461;-58
2023/10/21 06:43:26;;;;;;;28.50;5.23;;;24.80;63.10;;;26.17;40.43;94757.88;5079821;28;20501;-58
2023/10/21 06:45:54;;;;;;;18.47;6.77;;;25.30;62.70;;;26.71;39.76;94752.97;5080479;28;20489;-57
2023/10/21 06:48:21;;;;;;;15.67;5.10;;;25.90;61.80;;;27.26;39.31;94764.88;5079402;28;20450;-62
2023/10/21 06:50:49;;;;;;;14.30;5.03;;;26.40;60.60;;;27.80;39.09;94761.63;5080815;28;20449;-62
2023/10/21 06:53:17;;;;;;;17.43;6.03;;;26.90;59.80;;;28.32;37.26;94762.25;5079471;28;20454;-56
2023/10/21 06:55:45;;;;;;;14.70;5.80;;;27.40;57.70;;;28.82;36.84;94765.78;5080630;28;20988;-61
2023/10/21 06:58:13;;;;;;;17.47;5.00;;;27.90;57.30;;;29.33;36.73;94758.06;5079501;28;20562;-62
2023/10/21 07:00:40;;;;;;;15.90;5.97;;;28.50;56.10;;;29.92;35.99;94754.34;5080825;28;20957;-61
2023/10/21 07:03:07;;;;;;;18.73;5.37;;;29.10;55.80;;;30.52;35.39;94757.56;5082400;28;20446;-61
2023/10/21 07:05:35;;;;;;;13.03;5.70;;;29.70;54.50;;;31.08;33.95;94748.69;5078668;28;20486;-63
2023/10/21 07:08:03;;;;;;;16.57;5.53;;;30.40;52.90;;;31.50;33.31;94764.97;5081074;28;20216;-59
2023/10/21 07:10:32;;;;;;;13.10;4.83;;;30.90;51.50;;;31.89;32.71;94756.19;5078277;28;20207;-61
2023/10/21 07:12:59;;;;;;;18.53;5.73;;;31.30;50.80;;;32.28;32.17;94753.59;5079004;28;20274;-61
2023/10/21 07:15:27;;;;;;;10.70;5.38;;;31.80;49.70;;;32.76;31.21;94766.69;5081633;28;20199;-57
2023/10/21 07:17:55;;;;;;;15.80;5.60;;;32.30;48.50;;;33.17;30.63;94763.66;5078086;28;20224;-57
2023/10/21 07:20:22;;;;;;;18.23;5.45;;;32.70;47.90;;;33.50;30.49;94754.97;5081236;28;20699;-57
2023/10/21 07:22:49;;;;;;;10.82;5.80;;;33.10;47.00;;;33.76;29.38;94752.81;5077253;28;20306;-57
2023/10/21 07:25:18;;;;;;;12.18;6.10;;;33.50;46.10;;;34.05;29.39;94762.84;5080989;28;20754;-64
2023/10/21 07:27:47;;;;;;;16.23;5.97;;;33.90;45.30;;;34.24;28.94;94777.38;5077231;28;20685;-61
2023/10/21 07:30:15;;;;;;;17.45;5.90;;;34.20;44.80;;;34.45;28.83;94756.06;5080716;28;20304;-61
2023/10/21 07:32:42;;;;;;;24.48;6.10;;;34.40;43.70;;;34.68;28.82;94756.31;5077421;28;20231;-60
2023/10/21 07:35:10;;;;;;;14.35;6.18;;;34.70;43.80;;;34.90;27.58;94768.59;5081125;28;20299;-61
2023/10/21 07:37:38;;;;;;;21.17;6.65;;;34.90;43.30;;;35.00;27.33;94769.25;5077274;28;20220;-57
2023/10/21 07:40:07;;;;;;;24.33;5.85;;;35.00;42.50;;;35.03;26.86;94762.38;5077624;28;20287;-55
2023/10/21 07:42:34;;;;;;;24.75;6.85;;;35.10;42.60;;;35.04;28.00;94765.91;5081831;28;20207;-61
2023/10/21 07:45:04;;;;;;;24.33;5.78;;;35.00;41.80;;;35.01;26.71;94762.69;5074952;28;20606;-57
2023/10/21 07:47:33;;;;;;;12.23;5.50;;;34.80;41.50;;;35.08;26.58;94761.50;5075408;28;20254;-56
2023/10/21 07:50:00;;;;;;;14.07;5.55;;;34.70;40.90;;;35.10;26.51;94760.06;5077417;28;20234;-56
2023/10/21 07:52:27;;;;;;;17.83;4.30;;;34.70;41.70;;;35.09;27.27;94763.09;5076897;28;20227;-59
2023/10/21 07:54:54;;;;;;;25.15;5.13;;;34.60;41.40;;;35.01;27.21;94762.69;5074803;28;20188;-59
2023/10/21 07:57:22;;;;;;;8.27;4.75;;;34.50;41.30;;;34.93;26.21;94760.59;5078973;28;20216;-59
2023/10/21 07:59:49;;;;;;;29.90;5.10;;;34.40;40.90;;;34.79;27.26;94762.47;5069765;28;20200;-58
2023/10/21 08:02:18;;;;;;;20.92;5.47;;;34.30;40.70;;;34.69;27.58;94757.09;5071641;28;20304;-65
2023/10/21 08:04:45;;;;;;;27.33;5.38;;;34.20;41.20;;;34.73;27.07;94763.63;5080467;28;20203;-61
2023/10/21 08:07:13;;;;;;;24.73;8.23;;;34.10;41.70;;;34.82;26.96;94764.59;5075307;28;20788;-62
2023/10/21 08:09:40;;;;;;;28.08;6.80;;;34.10;41.60;;;34.94;27.19;94747.75;5075543;28;20210;-62
2023/10/21 08:12:09;;;;;;;11.13;3.78;;;34.20;41.90;;;34.98;26.71;94755.06;5077991;28;20239;-65
2023/10/21 08:14:36;;;;;;;15.13;4.93;;;34.30;40.90;;;34.96;26.12;94756.47;5076629;28;20201;-68
2023/10/21 08:17:05;;;;;;;24.77;5.13;;;34.30;40.10;;;35.02;26.76;94760.75;5072253;28;20245;-65
2023/10/21 08:19:33;;;;;;;14.93;5.40;;;34.30;41.20;;;35.08;26.67;94750.56;5077183;28;20232;-62
2023/10/21 08:22:01;;;;;;;19.58;6.00;;;34.30;40.90;;;35.16;26.24;94749.84;5074629;28;20663;-61
2023/10/21 08:24:29;;;;;;;23.65;5.30;;;34.30;40.90;;;35.29;26.22;94748.31;5073154;28;20678;-62
2023/10/21 08:26:56;;;;;;;16.73;5.70;;;34.50;41.00;;;35.52;25.12;94743.78;5076599;28;20227;-61
2023/10/21 08:29:23;;;;;;;18.63;4.97;;;34.70;39.40;;;35.70;25.62;94753.06;5076641;28;20667;-62
2023/10/21 08:31:51;;;;;;;24.17;5.57;;;34.80;40.40;;;35.88;26.38;94740.41;5073462;28;20220;-66
2023/10/21 08:34:18;;;;;;;16.58;5.43;;;35.00;40.40;;;36.10;26.31;94755.31;5076492;28;20202;-66
2023/10/21 08:36:47;;;;;;;17.17;3.78;;;35.20;40.20;;;36.28;25.46;94751.69;5076771;28;20234;-62
2023/10/21 08:39:14;;;;;;;15.27;5.05;;;35.30;39.50;;;36.43;25.69;94718.47;5076691;28;20204;-63
2023/10/21 08:41:42;;;;;;;18.50;5.55;;;35.60;39.40;;;36.52;25.36;94742.44;5076365;28;20215;-62
2023/10/21 08:44:10;;;;;;;17.52;4.93;;;35.70;39.30;;;36.55;25.17;94739.06;5075735;28;20237;-63
2023/10/21 08:46:37;;;;;;;18.58;4.57;;;35.80;39.10;;;36.61;24.91;94724.94;5073922;28;20715;-60
2023/10/21 08:49:05;;;;;;;14.63;4.30;;;35.80;38.10;;;36.59;23.38;94748.28;5074135;28;20239;-62
2023/10/21 08:51:33;;;;;;;9.77;2.72;;;35.80;37.10;;;36.07;21.41;94727.44;5072003;28;20215;-63
2023/10/21 08:54:03;;;;;;;17.60;3.15;;;35.30;33.10;;;35.39;21.49;94717.25;5068809;28;20350;-61
2023/10/21 08:56:31;;;;;;;16.25;3.42;;;34.80;32.10;;;34.90;20.97;94747.53;5075751;28;20307;-60
2023/10/21 08:58:59;;;;;;;18.60;3.55;;;34.40;32.80;;;34.50;21.83;94705.22;5071586;28;20724;-62
2023/10/21 09:01:26;;;;;;;22.15;2.78;;;33.90;33.80;;;34.40;21.85;94720.63;5073817;28;20633;-75
2023/10/21 09:03:54;;;;;;;17.10;3.08;;;33.70;33.70;;;34.43;21.93;94711.84;5071305;28;20203;-60
2023/10/21 09:06:21;;;;;;;12.32;2.88;;;33.60;33.10;;;34.38;21.99;94713.84;5080663;28;20236;-63
2023/10/21 09:08:49;;;;;;;15.13;2.72;;;33.50;32.60;;;34.23;21.26;94699.28;5079661;28;20209;-64
2023/10/21 09:11:20;;;;;;;12.23;2.60;;;33.50;32.90;;;34.07;21.18;94695.13;5082090;28;20249;-63
2023/10/21 09:13:48;;;;;;;19.58;3.05;;;33.30;32.70;;;33.94;21.76;94716.59;5083087;28;20220;-63
2023/10/21 09:16:21;;;;;;;23.60;3.30;;;33.20;33.10;;;33.94;21.29;94705.66;5081381;28;20230;-64
2023/10/21 09:18:59;;;;;;;18.00;5.63;;;33.20;33.10;;;33.94;22.10;94683.84;5083367;28;20199;-63
2023/10/21 09:21:37;;;;;;;16.08;3.13;;;33.10;33.50;;;34.14;21.45;94698.31;5080765;28;20303;-64
2023/10/21 09:24:06;;;;;;;19.08;4.03;;;33.30;33.50;;;34.18;21.21;94682.97;5081791;28;20253;-66
2023/10/21 09:26:36;;;;;;;25.20;3.72;;;33.30;33.10;;;34.27;21.89;94700.34;5081621;28;20232;-63
2023/10/21 09:29:07;;;;;;;20.15;6.53;;;33.40;33.10;;;34.06;21.82;94685.31;5081542;28;20204;-61
2023/10/21 09:31:48;;;;;;;22.45;3.95;;;33.30;33.00;;;34.04;22.27;94682.06;5082957;28;20228;-61
2023/10/21 09:34:29;;;;;;;8.95;3.53;;;33.20;34.00;;;33.93;21.74;94692.31;5080145;28;20290;-61
2023/10/21 09:36:57;;;;;;;19.77;3.22;;;33.10;33.70;;;33.44;22.28;94688.72;5081854;28;20430;-60
2023/10/21 09:39:26;;;;;;;10.30;3.15;;;32.80;33.80;;;33.02;22.44;94685.56;5082625;28;20592;-64
2023/10/21 09:41:55;;;;;;;13.88;3.05;;;32.40;34.20;;;32.77;23.03;94683.88;5081838;28;20235;-60
2023/10/21 09:44:22;;;;;;;18.08;2.90;;;32.10;34.80;;;32.59;22.99;94692.69;5081672;28;20222;-61
2023/10/21 09:46:50;;;;;;;11.60;4.82;;;31.90;34.70;;;32.42;23.83;94671.31;5081307;28;20258;-61
2023/10/21 09:49:17;;;;;;;18.80;5.07;;;31.70;35.60;;;32.42;23.39;94685.72;5082034;28;20203;-61
2023/10/21 09:51:54;;;;;;;14.52;3.05;;;31.60;35.50;;;32.40;23.44;94685.19;5081651;28;20222;-61
2023/10/21 09:54:34;;;;;;;9.55;2.50;;;31.60;35.40;;;32.41;23.92;94681.41;5081035;28;20195;-62
2023/10/21 09:57:03;;;;;;;18.48;4.13;;;31.60;35.90;;;32.59;23.79;94671.72;5083526;28;20245;-61
2023/10/21 09:59:31;;;;;;;23.77;3.50;;;31.80;36.50;;;32.76;23.26;94659.66;5080115;28;20530;-62
2023/10/21 10:01:59;;;;;;;9.50;3.22;;;31.90;35.00;;;32.80;23.64;94669.69;5082592;28;20315;-60
2023/10/21 10:04:27;;;;;;;22.58;4.93;;;32.00;35.70;;;32.88;22.96;94673.72;5079515;28;20204;-60
2023/10/21 10:06:59;;;;;;;31.20;4.28;;;32.00;35.10;;;32.95;23.61;94668.72;5082766;28;20227;-62
2023/10/21 10:09:28;;;;;;;24.00;3.95;;;32.10;35.40;;;33.00;23.69;94665.97;5081176;28;20208;-62
2023/10/21 10:11:58;;;;;;;15.00;2.88;;;32.20;35.80;;;33.14;23.06;94660.66;5081985;28;20219;-62
2023/10/21 10:14:28;;;;;;;19.67;4.20;;;32.20;35.50;;;33.22;23.29;94656.53;5079479;28;20616;-60
2023/10/21 10:16:55;;;;;;;13.77;3.15;;;32.40;34.90;;;33.20;22.72;94643.19;5081405;28;20661;-61